This is the latest recevied weather packets stored in our database for station/object OE5HMR-13. If no packets are shown the sender has not sent any weather packets the latest 10 day(s).
| Time | Temp. | Humidity | Pressure | Rain* | Wind** | Luminosity | Snow |
|---|---|---|---|---|---|---|---|
| 1777613729 | 0.56° C | 57% | 1025.4 hPa | 0 mm | - | - | - |
| 1777611932 | -0.56° C | 57% | 1025.4 hPa | 0 mm | - | - | - |
| 1777610763 | -1.11° C | 56% | 1025.4 hPa | 0 mm | - | - | - |
| 1777610123 | -1.67° C | 55% | 1025.4 hPa | 0 mm | - | - | - |
| 1777608326 | -1.67° C | 52% | 1025.4 hPa | 0 mm | - | - | - |
| 1777605335 | -0.56° C | 47% | 1025.4 hPa | 0 mm | - | - | - |
| 1777604727 | -0.56° C | 47% | 1025.4 hPa | 0 mm | - | - | - |
| 1777604132 | 0° C | 46% | 1025.4 hPa | 0 mm | - | - | - |
| 1777602943 | 0° C | 43% | 1025.4 hPa | 0 mm | - | - | - |
| 1777599324 | 2.78° C | 42% | 1025.4 hPa | 0 mm | - | - | - |
| 1777598726 | 3.33° C | 42% | 1025.4 hPa | 0 mm | - | - | - |
| 1777598126 | 3.33° C | 42% | 1025.4 hPa | 0 mm | - | - | - |
| 1777596345 | 3.89° C | 42% | 1025.4 hPa | 0 mm | - | - | - |
| 1777593328 | 3.89° C | 42% | 1025.4 hPa | 0 mm | - | - | - |
| 1777586725 | 2.78° C | 42% | 1025.4 hPa | 0 mm | - | - | - |
| 1777582524 | 3.33° C | 39% | 1025.4 hPa | 0 mm | - | - | - |
| 1777578927 | 2.78° C | 39% | 1025.4 hPa | 0 mm | - | - | - |
| 1777569343 | 10° C | 29% | 1025.2 hPa | 0 mm | - | - | - |
| 1777568723 | 10.56° C | 29% | 1024.3 hPa | 0 mm | - | - | - |
| 1777565726 | 11.11° C | 28% | 1024.3 hPa | 0 mm | - | - | - |
| 1777564522 | 11.67° C | 28% | 1024.3 hPa | 0 mm | - | - | - |
| 1777561530 | 11.11° C | 29% | 1025.4 hPa | 0 mm | - | - | - |
| 1777559136 | 11.11° C | 29% | 1025.4 hPa | 0 mm | - | - | - |
| 1777556732 | 10.56° C | 29% | 1025.4 hPa | 0 mm | - | - | - |
| 1777553750 | 10.56° C | 31% | 1025.4 hPa | 0 mm | - | - | - |
* Rain latest hour (hover to see other rain measurements)
** Current wind speed in m/s (hover to see current wind gust speed)